createdAt,value
2022-12-08T00:01:59.320Z,27.77
2022-12-08T00:04:27.905Z,28.70
2022-12-08T00:07:15.103Z,28.07
2022-12-08T00:09:43.706Z,28.20
2022-12-08T00:12:15.349Z,28.97
2022-12-08T00:14:46.536Z,28.17
2022-12-08T00:17:16.863Z,28.07
2022-12-08T00:19:46.011Z,28.37
2022-12-08T00:22:16.341Z,29.03
2022-12-08T00:24:46.621Z,28.10
2022-12-08T00:27:18.156Z,28.83
2022-12-08T00:29:46.792Z,28.40
2022-12-08T00:35:01.187Z,25.77
2022-12-08T00:37:30.911Z,28.70
2022-12-08T00:39:59.021Z,26.57
2022-12-08T00:42:27.163Z,28.43
2022-12-08T00:44:55.742Z,28.70
2022-12-08T00:47:25.065Z,28.83
2022-12-08T00:49:53.353Z,27.63
2022-12-08T00:52:21.932Z,28.20
2022-12-08T00:54:51.452Z,28.00
2022-12-08T00:57:19.630Z,26.27
2022-12-08T00:59:47.765Z,27.00
2022-12-08T01:02:16.207Z,27.53
2022-12-08T01:04:44.655Z,27.27
2022-12-08T01:07:12.859Z,24.97
2022-12-08T01:09:41.011Z,28.10
2022-12-08T01:12:10.818Z,27.10
2022-12-08T01:14:39.046Z,25.70
2022-12-08T01:17:07.219Z,26.83
2022-12-08T01:19:35.459Z,26.17
2022-12-08T01:22:03.528Z,25.57
2022-12-08T01:24:32.375Z,26.03
2022-12-08T01:27:00.555Z,25.07
2022-12-08T01:29:30.041Z,23.90
2022-12-08T01:31:58.224Z,23.67
2022-12-08T01:34:26.310Z,24.80
2022-12-08T01:36:54.444Z,23.40
2022-12-08T01:39:22.793Z,24.23
2022-12-08T01:41:51.001Z,24.90
2022-12-08T01:45:07.890Z,24.63
2022-12-08T01:47:43.469Z,22.83
2022-12-08T01:50:14.901Z,24.43
2022-12-08T01:52:47.863Z,24.47
2022-12-08T01:55:21.995Z,24.27
2022-12-08T01:57:57.042Z,24.60
2022-12-08T02:00:25.758Z,22.97
2022-12-08T02:02:59.593Z,24.37
2022-12-08T02:05:31.502Z,23.33
2022-12-08T02:08:01.736Z,24.07
2022-12-08T02:10:36.408Z,23.60
2022-12-08T02:13:05.877Z,23.60
2022-12-08T02:15:43.039Z,22.90
2022-12-08T02:18:30.919Z,23.63
2022-12-08T02:21:05.098Z,30.53
2022-12-08T02:23:43.272Z,27.93
2022-12-08T02:26:41.002Z,25.37
2022-12-08T02:29:50.426Z,24.07
2022-12-08T02:32:58.729Z,23.33
2022-12-08T02:35:36.753Z,23.53
2022-12-08T02:38:13.571Z,23.83
2022-12-08T02:40:50.896Z,23.53
2022-12-08T02:43:27.889Z,23.93
2022-12-08T02:46:01.188Z,23.13
2022-12-08T02:48:30.000Z,22.90
2022-12-08T02:50:59.490Z,22.83
2022-12-08T02:53:31.984Z,22.53
2022-12-08T02:56:07.224Z,21.13
2022-12-08T02:59:04.329Z,22.23
2022-12-08T03:01:50.003Z,22.97
2022-12-08T03:04:27.943Z,22.10
2022-12-08T03:07:04.444Z,21.50
2022-12-08T03:09:39.834Z,21.33
2022-12-08T03:12:16.754Z,22.20
2022-12-08T03:14:49.413Z,21.83
2022-12-08T03:17:22.213Z,21.83
2022-12-08T03:19:51.249Z,23.30
2022-12-08T03:22:26.069Z,23.17
2022-12-08T03:24:55.171Z,22.60
2022-12-08T03:27:25.912Z,21.23
2022-12-08T03:29:56.959Z,21.53
2022-12-08T03:32:30.283Z,20.67
2022-12-08T03:35:02.307Z,22.20
2022-12-08T03:37:32.436Z,21.30
2022-12-08T03:40:00.553Z,21.90
2022-12-08T03:42:28.645Z,21.00
2022-12-08T03:44:57.040Z,26.83
2022-12-08T03:47:25.274Z,23.00
2022-12-08T03:49:53.446Z,21.07
2022-12-08T03:52:21.527Z,21.50
2022-12-08T03:54:50.976Z,20.43
2022-12-08T03:57:19.206Z,20.40
2022-12-08T03:59:47.868Z,28.53
2022-12-08T04:02:15.997Z,24.67
2022-12-08T04:04:45.209Z,19.70
2022-12-08T04:07:13.357Z,19.67
2022-12-08T04:09:41.888Z,21.00
2022-12-08T04:12:11.465Z,19.10
2022-12-08T04:14:39.616Z,19.67
2022-12-08T04:17:07.735Z,18.70
2022-12-08T04:19:35.905Z,20.03
2022-12-08T04:22:04.027Z,19.87
2022-12-08T04:24:32.153Z,19.80
2022-12-08T04:27:00.334Z,19.00
2022-12-08T04:29:29.852Z,21.60
2022-12-08T04:31:58.096Z,20.27
2022-12-08T04:34:26.234Z,20.00
2022-12-08T04:36:54.839Z,20.90
2022-12-08T04:39:23.014Z,21.47
2022-12-08T04:41:51.176Z,22.33
2022-12-08T04:44:19.348Z,21.07
2022-12-08T04:46:48.873Z,20.10
2022-12-08T04:49:17.006Z,20.97
2022-12-08T04:51:45.200Z,21.10
2022-12-08T04:54:13.352Z,21.00
2022-12-08T04:56:41.747Z,21.50
2022-12-08T04:59:09.950Z,22.03
2022-12-08T05:01:38.612Z,20.87
2022-12-08T05:04:08.221Z,20.23
2022-12-08T05:06:36.416Z,20.37
2022-12-08T05:09:04.850Z,20.17
2022-12-08T05:11:33.075Z,20.83
2022-12-08T05:14:01.173Z,21.40
2022-12-08T05:16:29.521Z,20.53
2022-12-08T05:18:57.683Z,21.77
2022-12-08T05:21:27.164Z,21.50
2022-12-08T05:23:55.280Z,19.20
2022-12-08T05:26:23.371Z,21.30
2022-12-08T05:28:51.587Z,21.57
2022-12-08T05:31:20.178Z,21.57
2022-12-08T05:33:48.445Z,20.60
2022-12-08T05:36:17.932Z,20.73
2022-12-08T05:38:48.334Z,21.43
2022-12-08T05:41:18.740Z,22.40
2022-12-08T05:43:47.583Z,22.17
2022-12-08T05:46:16.572Z,22.53
2022-12-08T05:48:44.920Z,21.47
2022-12-08T05:51:19.839Z,21.73
2022-12-08T05:53:50.309Z,21.87
2022-12-08T05:56:19.097Z,22.37
2022-12-08T05:58:47.477Z,22.43
2022-12-08T06:01:23.905Z,22.23
2022-12-08T06:03:52.074Z,24.20
2022-12-08T06:06:20.496Z,24.47
2022-12-08T06:08:50.227Z,22.10
2022-12-08T06:11:24.137Z,23.70
2022-12-08T06:13:52.946Z,23.80
2022-12-08T06:16:21.160Z,23.60
2022-12-08T06:18:49.374Z,24.73
2022-12-08T06:21:18.337Z,22.83
2022-12-08T06:23:51.270Z,25.17
2022-12-08T06:26:19.758Z,24.73
2022-12-08T06:28:48.070Z,24.27
2022-12-08T06:31:17.915Z,24.70
2022-12-08T06:33:46.776Z,23.83
2022-12-08T06:36:17.316Z,24.40
2022-12-08T06:38:46.073Z,24.00
2022-12-08T06:41:15.711Z,22.77
2022-12-08T06:43:44.658Z,22.93
2022-12-08T06:46:15.447Z,23.13
2022-12-08T06:48:43.990Z,23.50
2022-12-08T06:51:14.344Z,23.60
2022-12-08T06:53:43.152Z,23.57
2022-12-08T06:56:12.369Z,24.07
2022-12-08T06:58:42.431Z,27.53
2022-12-08T07:01:15.197Z,24.30
2022-12-08T07:03:43.667Z,25.17
2022-12-08T07:06:17.155Z,27.07
2022-12-08T07:08:45.339Z,25.13
2022-12-08T07:11:19.688Z,25.10
2022-12-08T07:13:51.362Z,23.67
2022-12-08T07:16:19.683Z,23.70
2022-12-08T07:18:47.912Z,23.63
2022-12-08T07:21:16.762Z,23.63
2022-12-08T07:23:52.674Z,25.40
2022-12-08T07:26:25.444Z,25.73
2022-12-08T07:28:55.409Z,27.50
2022-12-08T07:31:25.312Z,27.27
2022-12-08T07:33:54.173Z,29.33
2022-12-08T07:36:23.723Z,26.40
2022-12-08T07:38:53.818Z,27.37
2022-12-08T07:41:23.879Z,24.77
2022-12-08T07:43:53.631Z,25.13
2022-12-08T07:46:25.398Z,22.97
2022-12-08T07:48:54.043Z,24.40
2022-12-08T07:51:22.190Z,28.23
2022-12-08T07:53:54.307Z,24.67
2022-12-08T07:56:23.240Z,25.23
2022-12-08T07:58:51.388Z,24.17
2022-12-08T08:01:23.083Z,23.53
2022-12-08T08:03:51.450Z,27.43
2022-12-08T08:06:19.537Z,25.40
2022-12-08T08:08:47.788Z,24.60
2022-12-08T08:11:21.008Z,26.03
2022-12-08T08:13:49.916Z,25.07
2022-12-08T08:16:18.700Z,24.07
2022-12-08T08:18:53.203Z,24.93
2022-12-08T08:21:45.185Z,24.70
2022-12-08T08:24:10.427Z,25.60
2022-12-08T08:26:38.497Z,24.37
2022-12-08T08:29:06.669Z,23.37
2022-12-08T08:31:34.834Z,23.63
2022-12-08T08:34:06.495Z,23.47
2022-12-08T08:36:35.254Z,22.13
2022-12-08T08:39:03.541Z,22.27
2022-12-08T08:41:31.678Z,23.37
2022-12-08T08:43:59.895Z,22.83
2022-12-08T08:46:28.336Z,20.40
2022-12-08T08:48:56.506Z,22.50
2022-12-08T08:51:26.114Z,21.40
2022-12-08T08:53:54.311Z,21.17
2022-12-08T08:56:22.549Z,22.00
2022-12-08T08:58:51.989Z,27.13
2022-12-08T09:01:22.282Z,31.10
2022-12-08T09:03:50.731Z,23.30
2022-12-08T09:06:19.244Z,36.80
2022-12-08T09:08:49.624Z,21.60
2022-12-08T09:11:18.778Z,23.83
2022-12-08T09:13:49.223Z,22.20
2022-12-08T09:16:18.736Z,23.73
2022-12-08T09:18:48.112Z,26.23
2022-12-08T09:21:22.527Z,23.10
2022-12-08T09:23:53.015Z,24.00
2022-12-08T09:26:22.603Z,22.17
2022-12-08T09:28:51.199Z,23.40
2022-12-08T09:31:20.665Z,24.20
2022-12-08T09:33:48.856Z,25.70
2022-12-08T09:36:16.933Z,25.10
2022-12-08T09:38:46.734Z,26.07
2022-12-08T09:41:21.504Z,26.27
2022-12-08T09:44:04.297Z,25.67
2022-12-08T09:46:35.556Z,26.20
2022-12-08T09:49:05.560Z,24.53
2022-12-08T09:51:39.306Z,26.30
2022-12-08T09:54:12.679Z,25.87
2022-12-08T09:56:42.711Z,25.57
2022-12-08T09:59:24.075Z,25.60
2022-12-08T10:01:52.869Z,27.43
2022-12-08T10:04:26.209Z,28.80
2022-12-08T10:07:04.938Z,27.67
2022-12-08T10:09:41.913Z,31.13
2022-12-08T10:12:22.209Z,29.70
2022-12-08T10:15:00.161Z,30.30
2022-12-08T10:17:34.509Z,30.10
2022-12-08T10:20:11.345Z,30.27
2022-12-08T10:22:44.459Z,30.40
2022-12-08T10:25:18.326Z,29.43
2022-12-08T10:27:49.966Z,29.33
2022-12-08T10:30:20.394Z,28.87
2022-12-08T10:32:52.147Z,29.30
2022-12-08T10:35:22.832Z,29.53
2022-12-08T10:37:58.411Z,29.47
2022-12-08T10:40:29.850Z,30.27
2022-12-08T10:43:00.733Z,32.63
2022-12-08T10:45:31.321Z,29.00
2022-12-08T10:48:05.970Z,27.57
2022-12-08T10:50:37.080Z,31.13
2022-12-08T10:53:14.485Z,29.73
2022-12-08T10:55:46.395Z,32.47
2022-12-08T10:58:37.161Z,30.33
2022-12-08T11:01:11.004Z,31.37
2022-12-08T11:03:46.438Z,30.40
2022-12-08T11:06:19.093Z,30.57
2022-12-08T11:08:51.373Z,30.03
2022-12-08T11:11:25.859Z,30.57
2022-12-08T11:13:58.720Z,30.77
2022-12-08T11:16:27.003Z,31.47
2022-12-08T11:18:59.474Z,29.57
2022-12-08T11:21:37.107Z,30.60
2022-12-08T11:24:24.123Z,32.30
2022-12-08T11:26:55.850Z,34.20
2022-12-08T11:29:25.431Z,30.10
2022-12-08T11:31:58.444Z,29.87
2022-12-08T11:34:34.211Z,32.70
2022-12-08T11:37:05.029Z,30.37
2022-12-08T11:39:36.465Z,30.77
2022-12-08T11:42:08.902Z,31.53
2022-12-08T11:44:44.148Z,32.37
2022-12-08T11:47:18.855Z,31.70
2022-12-08T11:49:50.366Z,31.83
2022-12-08T11:52:23.877Z,32.67
2022-12-08T11:54:57.081Z,33.87
2022-12-08T11:57:28.183Z,29.83
2022-12-08T11:59:59.758Z,29.97
2022-12-08T12:02:30.254Z,28.23
2022-12-08T12:05:04.361Z,31.57
2022-12-08T12:07:48.749Z,28.30
2022-12-08T12:10:29.498Z,28.83
2022-12-08T12:13:08.920Z,31.37
2022-12-08T12:16:27.813Z,29.93
2022-12-08T12:19:00.153Z,27.30
2022-12-08T12:21:33.594Z,27.83
2022-12-08T12:24:07.566Z,27.47
2022-12-08T12:26:38.698Z,34.97
2022-12-08T12:29:14.169Z,30.53
2022-12-08T12:31:48.735Z,32.80
2022-12-08T12:34:22.389Z,32.70
2022-12-08T12:36:54.016Z,31.70
2022-12-08T12:39:24.575Z,30.27
2022-12-08T12:41:55.458Z,30.10
2022-12-08T12:44:44.492Z,29.90
2022-12-08T12:47:48.647Z,29.77
2022-12-08T12:50:55.224Z,27.10
2022-12-08T12:53:49.873Z,26.97
2022-12-08T12:56:50.152Z,26.13
2022-12-08T12:59:45.497Z,25.40
2022-12-08T13:02:25.239Z,26.00
2022-12-08T13:05:00.756Z,24.77
2022-12-08T13:07:32.134Z,28.80
2022-12-08T13:10:04.035Z,27.73
2022-12-08T13:12:32.751Z,26.87
2022-12-08T13:15:05.733Z,29.50
2022-12-08T13:17:38.472Z,25.00
2022-12-08T13:20:19.077Z,26.30
2022-12-08T13:23:04.785Z,25.97
2022-12-08T13:26:14.764Z,26.73
2022-12-08T13:29:23.241Z,25.73
2022-12-08T13:31:53.818Z,26.13
2022-12-08T13:34:35.198Z,25.50
2022-12-08T13:37:19.043Z,25.47
2022-12-08T13:39:52.281Z,26.00
2022-12-08T13:42:26.126Z,24.00
2022-12-08T13:48:21.559Z,28.80
2022-12-08T13:59:30.842Z,24.53
2022-12-08T14:02:00.724Z,22.93
2022-12-08T14:05:16.203Z,23.13
2022-12-08T14:07:19.030Z,22.53
2022-12-08T14:09:48.021Z,22.23
2022-12-08T14:12:21.144Z,23.47
2022-12-08T14:15:08.065Z,24.83
2022-12-08T14:17:36.247Z,24.77
2022-12-08T14:20:18.242Z,24.93
2022-12-08T14:22:47.926Z,25.13
2022-12-08T14:25:18.271Z,25.90
2022-12-08T14:27:47.707Z,26.77
2022-12-08T14:30:26.181Z,27.87
2022-12-08T14:32:56.843Z,26.87
2022-12-08T14:35:28.281Z,27.80
2022-12-08T14:38:00.188Z,28.37
2022-12-08T14:40:34.843Z,28.40
2022-12-08T14:43:17.153Z,27.00
2022-12-08T14:45:53.589Z,28.60
2022-12-08T14:48:26.774Z,28.30
2022-12-08T14:51:02.914Z,28.67
2022-12-08T14:53:39.857Z,29.50
2022-12-08T14:56:10.264Z,28.23
2022-12-08T14:58:38.394Z,29.27
2022-12-08T15:01:10.485Z,29.47
2022-12-08T15:03:38.727Z,29.60
2022-12-08T15:06:08.861Z,30.33
2022-12-08T15:08:53.116Z,31.83
2022-12-08T15:11:33.104Z,31.13
2022-12-08T15:14:01.624Z,28.77
2022-12-08T15:16:33.125Z,30.80
2022-12-08T15:19:06.069Z,31.20
2022-12-08T15:21:40.044Z,30.90
2022-12-08T15:24:12.420Z,31.57
2022-12-08T15:26:43.174Z,33.07
2022-12-08T15:29:12.973Z,33.57
2022-12-08T15:31:41.143Z,32.60
2022-12-08T15:34:09.261Z,32.50
2022-12-08T15:36:38.160Z,30.73
2022-12-08T15:39:26.984Z,33.40
2022-12-08T15:41:55.193Z,32.30
2022-12-08T15:44:24.050Z,35.23
2022-12-08T15:46:52.276Z,32.17
2022-12-08T15:49:22.973Z,32.73
2022-12-08T15:51:55.684Z,31.70
2022-12-08T15:54:30.241Z,33.43
2022-12-08T15:59:47.562Z,35.27
2022-12-08T16:02:22.357Z,32.20
2022-12-08T16:07:39.541Z,32.33
2022-12-08T16:10:12.596Z,31.40
2022-12-08T16:13:55.463Z,32.63
2022-12-08T16:15:55.142Z,29.00
2022-12-08T16:18:29.919Z,27.87
2022-12-08T16:21:12.467Z,28.53
2022-12-08T16:23:46.718Z,28.13
2022-12-08T16:26:44.125Z,26.80
2022-12-08T16:29:06.853Z,28.20
2022-12-08T16:31:35.552Z,27.17
2022-12-08T16:34:03.798Z,27.53
2022-12-08T16:36:32.383Z,28.30
2022-12-08T16:39:00.575Z,39.47
2022-12-08T16:41:47.163Z,30.67
2022-12-08T16:44:16.439Z,27.57
2022-12-08T16:46:44.649Z,30.00
2022-12-08T16:49:12.700Z,27.97
2022-12-08T16:51:43.948Z,28.13
2022-12-08T16:54:12.165Z,27.90
2022-12-08T16:56:42.047Z,35.83
2022-12-08T16:59:10.071Z,31.47
2022-12-08T17:01:38.542Z,31.23
2022-12-08T17:04:30.371Z,28.63
2022-12-08T17:06:54.974Z,28.17
2022-12-08T17:09:23.068Z,27.27
2022-12-08T17:11:53.103Z,27.50
2022-12-08T17:14:21.379Z,30.07
2022-12-08T17:16:49.657Z,31.17
2022-12-08T17:19:19.031Z,30.97
2022-12-08T17:21:47.225Z,31.10
2022-12-08T17:24:18.656Z,30.80
2022-12-08T17:26:50.021Z,30.80
2022-12-08T17:29:19.748Z,30.23
2022-12-08T17:31:48.173Z,28.90
2022-12-08T17:34:16.394Z,36.83
2022-12-08T17:36:45.172Z,34.17
2022-12-08T17:39:18.393Z,33.30
2022-12-08T17:41:47.153Z,31.73
2022-12-08T17:44:17.900Z,30.27
2022-12-08T17:46:52.679Z,32.70
2022-12-08T17:49:24.591Z,35.30
2022-12-08T17:51:54.764Z,34.00
2022-12-08T17:54:23.268Z,32.97
2022-12-08T17:56:51.540Z,33.70
2022-12-08T17:59:19.992Z,35.67
2022-12-08T18:01:49.663Z,32.70
2022-12-08T18:04:17.867Z,33.03
2022-12-08T18:06:46.584Z,33.50
2022-12-08T18:09:14.916Z,35.53
2022-12-08T18:11:47.290Z,34.37
2022-12-08T18:14:16.152Z,31.40
2022-12-08T18:16:46.371Z,33.40
2022-12-08T18:19:16.811Z,33.47
2022-12-08T18:21:45.200Z,33.77
2022-12-08T18:24:19.001Z,32.60
2022-12-08T18:26:47.787Z,32.43
2022-12-08T18:29:16.092Z,31.67
2022-12-08T18:31:44.395Z,29.13
2022-12-08T18:34:12.648Z,31.97
2022-12-08T18:36:42.742Z,32.73
2022-12-08T18:39:22.218Z,31.03
2022-12-08T18:41:50.631Z,33.30
2022-12-08T18:44:19.439Z,30.63
2022-12-08T18:46:47.638Z,29.17
2022-12-08T18:49:17.570Z,30.77
2022-12-08T18:51:47.451Z,30.40
2022-12-08T18:54:15.606Z,30.00
2022-12-08T18:56:43.759Z,30.90
2022-12-08T18:59:13.317Z,30.40
2022-12-08T19:01:42.483Z,32.80
2022-12-08T19:04:40.703Z,31.90
2022-12-08T19:07:00.399Z,32.93
2022-12-08T19:09:29.142Z,33.90
2022-12-08T19:11:58.245Z,33.67
2022-12-08T19:14:28.590Z,40.27
2022-12-08T19:16:57.274Z,38.73
2022-12-08T19:19:25.516Z,38.70
2022-12-08T19:21:53.943Z,37.90
2022-12-08T19:24:23.675Z,36.00
2022-12-08T19:26:54.673Z,36.40
2022-12-08T19:29:22.833Z,36.40
2022-12-08T19:31:51.163Z,36.70
2022-12-08T19:34:20.303Z,34.90
2022-12-08T19:36:49.099Z,37.73
2022-12-08T19:39:37.391Z,37.00
2022-12-08T19:42:30.513Z,35.50
2022-12-08T19:45:01.115Z,36.53
2022-12-08T19:47:44.206Z,35.93
2022-12-08T19:50:31.361Z,34.53
2022-12-08T19:52:59.549Z,34.60
2022-12-08T19:55:28.127Z,36.00
2022-12-08T19:57:58.420Z,34.23
2022-12-08T20:00:26.535Z,33.77
2022-12-08T20:02:55.276Z,35.53
2022-12-08T20:05:24.108Z,33.37
2022-12-08T20:07:55.696Z,32.33
2022-12-08T20:10:28.145Z,32.63
2022-12-08T20:13:18.080Z,31.50
2022-12-08T20:15:47.161Z,31.97
2022-12-08T20:18:16.464Z,32.57
2022-12-08T20:20:46.369Z,33.57
2022-12-08T20:23:15.575Z,34.80
2022-12-08T20:25:46.408Z,32.67
2022-12-08T20:28:16.134Z,35.60
2022-12-08T20:30:47.121Z,32.73
2022-12-08T20:33:16.298Z,34.33
2022-12-08T20:35:45.267Z,34.23
2022-12-08T20:38:14.248Z,33.63
2022-12-08T20:40:46.393Z,36.23
2022-12-08T20:43:15.973Z,34.60
2022-12-08T20:45:44.348Z,34.20
2022-12-08T20:48:12.972Z,34.00
2022-12-08T20:50:41.253Z,34.43
2022-12-08T20:53:27.066Z,32.07
2022-12-08T20:55:55.601Z,32.17
2022-12-08T20:58:25.289Z,33.87
2022-12-08T21:00:53.495Z,33.67
2022-12-08T21:03:21.965Z,35.23
2022-12-08T21:05:51.420Z,34.70
2022-12-08T21:08:19.877Z,34.30
2022-12-08T21:10:55.070Z,32.67
2022-12-08T21:13:25.105Z,34.67
2022-12-08T21:15:53.516Z,33.47
2022-12-08T21:18:21.784Z,33.50
2022-12-08T21:20:49.938Z,34.80
2022-12-08T21:23:19.228Z,33.70
2022-12-08T21:25:48.273Z,33.43
2022-12-08T21:28:16.616Z,34.50
2022-12-08T21:30:46.266Z,35.10
2022-12-08T21:33:14.416Z,35.60
2022-12-08T21:35:43.224Z,32.50
2022-12-08T21:38:11.492Z,35.17
2022-12-08T21:40:39.728Z,35.17
2022-12-08T21:43:08.099Z,33.60
2022-12-08T21:45:36.482Z,31.57
2022-12-08T21:48:11.384Z,32.60
2022-12-08T21:50:40.827Z,31.10
2022-12-08T21:53:09.067Z,30.17
2022-12-08T21:55:37.248Z,30.97
2022-12-08T21:58:05.671Z,31.30
2022-12-08T22:00:33.910Z,29.73
2022-12-08T22:03:02.291Z,28.53
2022-12-08T22:05:32.158Z,30.93
2022-12-08T22:08:00.657Z,30.47
2022-12-08T22:10:28.973Z,30.37
2022-12-08T22:12:57.164Z,28.03
2022-12-08T22:15:26.162Z,26.87
2022-12-08T22:17:54.410Z,28.43
2022-12-08T22:20:22.692Z,28.33
2022-12-08T22:22:52.327Z,28.33
2022-12-08T22:25:20.690Z,28.00
2022-12-08T22:27:48.989Z,27.20
2022-12-08T22:30:17.477Z,27.17
2022-12-08T22:32:45.585Z,27.33
2022-12-08T22:35:13.749Z,28.23
2022-12-08T22:37:42.010Z,28.03
2022-12-08T22:40:12.849Z,27.93
2022-12-08T22:42:41.219Z,26.90
2022-12-08T22:45:10.603Z,28.87
2022-12-08T22:47:38.884Z,27.67
2022-12-08T22:50:08.459Z,26.53
2022-12-08T22:52:36.949Z,27.07
2022-12-08T22:55:05.627Z,27.23
2022-12-08T22:57:35.414Z,25.87
2022-12-08T23:00:03.631Z,28.73
2022-12-08T23:02:31.947Z,26.40
2022-12-08T23:05:00.383Z,25.97
2022-12-08T23:07:28.631Z,26.33
2022-12-08T23:09:56.934Z,27.40
2022-12-08T23:12:25.064Z,27.20
2022-12-08T23:14:55.038Z,25.83
2022-12-08T23:17:23.364Z,27.07
2022-12-08T23:19:51.567Z,24.97
2022-12-08T23:22:19.877Z,25.73
2022-12-08T23:24:48.110Z,26.93
2022-12-08T23:27:16.258Z,27.07
2022-12-08T23:29:44.384Z,25.93
2022-12-08T23:32:13.865Z,26.80
2022-12-08T23:34:42.246Z,25.00
2022-12-08T23:37:10.813Z,25.87
2022-12-08T23:39:39.464Z,25.00
2022-12-08T23:42:08.134Z,27.43
2022-12-08T23:44:36.248Z,24.57
2022-12-08T23:47:04.556Z,23.73
2022-12-08T23:49:34.645Z,24.37
2022-12-08T23:52:02.868Z,22.60
2022-12-08T23:54:31.010Z,21.53
2022-12-08T23:56:59.259Z,21.13
2022-12-08T23:59:27.400Z,22.57
